MMSL

Cabo San Lucas International Airport

Cabo San Lucas, Mexico
TAF MMSL 220438Z 2206/2306 00000KT P6SM SCT120 FM221800 20010KT P6SM SCT090 SCT220 BECMG 2303/2305 02008KT BKN220
Issued Valid From Valid To
Jan-22 @ 04:38 UTC
(12 hours ago)
Jan-22 @ 06:00 UTC
(11 hours ago)
Jan-23 @ 06:00 UTC
(in 13 hours)
Jan-22 @ 06:00 to Jan-22 @ 18:00
TAF MMSL 220438Z 2206/2306 00000KT P6SM SCT120
Visibility Clouds
Greater than 6 miles
  • Scattered at 12,000' AGL
From Jan-22 @ 18:00 to Jan-23 @ 03:00
FM221800 20010KT P6SM SCT090 SCT220
Wind Visibility Clouds
200° at 10 knots Greater than 6 miles
  • Scattered at 9,000' AGL
  • Scattered at 22,000' AGL
Becoming Jan-23 @ 03:00 to Jan-23 @ 06:00
BECMG 2303/2305 02008KT BKN220
Wind Visibility Clouds
20° at 8 knots Greater than 6 miles
  • Broken at 22,000' AGL
TAF MMSL 220438Z 2206/2306 00000KT P6SM SCT120 FM221800 20010KT P6SM SCT090 SCT220 BECMG 2303/2305 02008KT BKN220
Issued Jan-22 @ 04:38 UTC
(12 hours ago)
Valid From Jan-22 @ 06:00 UTC
(11 hours ago)
Valid To Jan-23 @ 06:00 UTC
(in 13 hours)
Jan-22 @ 06:00 - Jan-22 @ 18:00
Clouds
  • Scattered at 12,000' AGL
From Jan-22 @ 18:00 - Jan-23 @ 03:00
Wind Visibility
200° at 10 knots Greater than 6 miles
Clouds
  • Scattered at 9,000' AGL
  • Scattered at 22,000' AGL
Becoming Jan-23 @ 03:00 - Jan-23 @ 06:00
Wind Visibility
20° at 8 knots Greater than 6 miles
Clouds
  • Broken at 22,000' AGL